Time;durP1;ratioP1;P1;durP2;ratioP2;P2;SDS_P1;SDS_P2;PMS_P1;PMS_P2;Temp;Humidity;BMP_temperature;BMP_pressure;BME280_temperature;BME280_humidity;BME280_pressure;Samples;Min_cycle;Max_cycle;Signal;HPM_P1;HPM_P2
2021/07/01 00:01:02;;;;;;;23.35;17.17;;;;;;;;;;5086182;28;20216;-57
2021/07/01 00:03:27;;;;;;;22.90;17.65;;;;;;;;;;5086388;28;20244;-57
2021/07/01 00:05:53;;;;;;;24.58;17.42;;;;;;;;;;5069522;28;20208;-57
2021/07/01 00:08:18;;;;;;;26.58;18.38;;;;;;;;;;5081757;28;20680;-57
2021/07/01 00:10:43;;;;;;;26.20;18.13;;;;;;;;;;5084050;28;20211;-56
2021/07/01 00:13:09;;;;;;;25.55;18.13;;;;;;;;;;5083387;28;20189;-57
2021/07/01 00:15:35;;;;;;;23.25;17.38;;;;;;;;;;5082594;28;20197;-56
2021/07/01 00:18:02;;;;;;;25.38;17.35;;;;;;;;;;5086351;28;20683;-55
2021/07/01 00:20:27;;;;;;;22.95;15.48;;;;;;;;;;5083496;28;20177;-57
2021/07/01 00:22:53;;;;;;;21.97;16.17;;;;;;;;;;5071053;28;20760;-57
2021/07/01 00:25:20;;;;;;;22.38;15.05;;;;;;;;;;5082742;28;20188;-56
2021/07/01 00:27:46;;;;;;;20.95;14.73;;;;;;;;;;5084103;28;20181;-57
2021/07/01 00:30:13;;;;;;;20.02;14.82;;;;;;;;;;5082354;28;20212;-57
2021/07/01 00:32:39;;;;;;;25.85;15.82;;;;;;;;;;5072657;28;20226;-57
2021/07/01 00:35:06;;;;;;;20.77;14.75;;;;;;;;;;5067228;28;20189;-56
2021/07/01 00:37:32;;;;;;;20.00;14.05;;;;;;;;;;5085848;28;20751;-57
2021/07/01 00:39:59;;;;;;;20.60;14.05;;;;;;;;;;5084897;28;20653;-57
2021/07/01 00:42:25;;;;;;;18.80;14.20;;;;;;;;;;5084692;28;20236;-57
2021/07/01 00:44:50;;;;;;;18.63;13.52;;;;;;;;;;5084781;28;20242;-57
2021/07/01 00:47:15;;;;;;;15.77;12.73;;;;;;;;;;5088181;28;20240;-56
2021/07/01 00:49:43;;;;;;;12.40;10.60;;;;;;;;;;5083084;28;20177;-57
2021/07/01 00:52:09;;;;;;;15.43;11.60;;;;;;;;;;5085653;28;20687;-57
2021/07/01 00:54:34;;;;;;;16.17;11.55;;;;;;;;;;5083462;28;20234;-57
2021/07/01 00:56:59;;;;;;;12.18;10.13;;;;;;;;;;5083250;28;20792;-57
2021/07/01 00:59:25;;;;;;;15.00;10.70;;;;;;;;;;5064710;28;20420;-57
2021/07/01 01:01:50;;;;;;;13.43;10.77;;;;;;;;;;5088411;28;20625;-57
2021/07/01 01:04:15;;;;;;;14.35;10.60;;;;;;;;;;5065573;28;20188;-57
2021/07/01 01:06:40;;;;;;;13.90;10.55;;;;;;;;;;5093783;28;20196;-57
2021/07/01 01:09:09;;;;;;;14.13;9.90;;;;;;;;;;5082456;28;20591;-57
2021/07/01 01:11:34;;;;;;;13.18;9.57;;;;;;;;;;5067025;28;20597;-57
2021/07/01 01:13:59;;;;;;;11.85;10.07;;;;;;;;;;5084445;28;20185;-57
2021/07/01 01:16:25;;;;;;;11.33;9.33;;;;;;;;;;5088743;28;20204;-57
2021/07/01 01:18:50;;;;;;;14.02;9.30;;;;;;;;;;5086491;28;20196;-57
2021/07/01 01:21:18;;;;;;;12.65;9.00;;;;;;;;;;5088607;28;20189;-57
2021/07/01 01:23:44;;;;;;;12.70;9.05;;;;;;;;;;5086875;28;20205;-56
2021/07/01 01:26:10;;;;;;;13.90;9.38;;;;;;;;;;5084373;28;20225;-57
2021/07/01 01:28:36;;;;;;;13.85;8.77;;;;;;;;;;5071215;28;20185;-57
2021/07/01 01:31:02;;;;;;;11.60;8.65;;;;;;;;;;5082843;28;20188;-57
2021/07/01 01:33:28;;;;;;;10.73;8.50;;;;;;;;;;5085369;28;20702;-57
2021/07/01 01:35:53;;;;;;;12.55;8.70;;;;;;;;;;5070647;28;20211;-57
2021/07/01 01:38:19;;;;;;;10.05;7.90;;;;;;;;;;5089488;28;20199;-56
2021/07/01 01:40:47;;;;;;;7.60;6.80;;;;;;;;;;5083367;28;20687;-56
2021/07/01 01:43:14;;;;;;;9.33;6.97;;;;;;;;;;5081451;28;20283;-57
2021/07/01 01:45:41;;;;;;;10.63;6.95;;;;;;;;;;5067055;28;20548;-57
2021/07/01 01:48:06;;;;;;;8.20;7.00;;;;;;;;;;5082877;28;20199;-57
2021/07/01 01:50:32;;;;;;;11.27;7.93;;;;;;;;;;5083066;28;20205;-57
2021/07/01 01:52:58;;;;;;;10.50;7.70;;;;;;;;;;5087733;28;20272;-57
2021/07/01 01:55:23;;;;;;;13.30;7.70;;;;;;;;;;5079912;28;20273;-56
2021/07/01 01:57:50;;;;;;;13.00;7.47;;;;;;;;;;5086059;28;20204;-57
2021/07/01 02:00:21;;;;;;;12.50;7.77;;;;;;;;;;5064695;28;20818;-58
2021/07/01 02:02:47;;;;;;;10.95;8.25;;;;;;;;;;5069069;28;20213;-56
2021/07/01 02:05:12;;;;;;;12.83;7.60;;;;;;;;;;5065712;28;20226;-56
2021/07/01 02:07:38;;;;;;;11.53;7.60;;;;;;;;;;5088079;28;20623;-57
2021/07/01 02:10:09;;;;;;;9.40;7.27;;;;;;;;;;5080913;28;20184;-57
2021/07/01 02:12:35;;;;;;;8.93;8.03;;;;;;;;;;5085541;28;20180;-56
2021/07/01 02:15:04;;;;;;;12.93;8.33;;;;;;;;;;5081885;28;20189;-57
2021/07/01 02:17:29;;;;;;;8.63;7.60;;;;;;;;;;5081753;28;20219;-56
2021/07/01 02:19:54;;;;;;;11.00;7.60;;;;;;;;;;5085537;28;20200;-56
2021/07/01 02:22:20;;;;;;;10.83;7.63;;;;;;;;;;5082312;28;20876;-57
2021/07/01 02:24:45;;;;;;;11.13;7.77;;;;;;;;;;5063169;28;20185;-57
2021/07/01 02:27:11;;;;;;;13.07;7.23;;;;;;;;;;5081375;28;20698;-57
2021/07/01 02:29:37;;;;;;;8.43;6.80;;;;;;;;;;5088535;28;20250;-56
2021/07/01 02:32:03;;;;;;;9.10;6.67;;;;;;;;;;5067020;28;20192;-57
2021/07/01 02:34:28;;;;;;;9.87;6.37;;;;;;;;;;5062498;28;20737;-57
2021/07/01 02:36:54;;;;;;;7.80;6.67;;;;;;;;;;5061856;28;20299;-57
2021/07/01 02:39:19;;;;;;;13.00;6.67;;;;;;;;;;5082390;28;20184;-57
2021/07/01 02:41:44;;;;;;;8.67;6.30;;;;;;;;;;5080548;28;20215;-56
2021/07/01 02:44:09;;;;;;;11.10;7.30;;;;;;;;;;5079754;28;20541;-57
2021/07/01 02:46:35;;;;;;;10.83;7.00;;;;;;;;;;5070023;28;20246;-57
2021/07/01 02:49:00;;;;;;;14.07;7.67;;;;;;;;;;5083465;28;20195;-57
2021/07/01 02:51:25;;;;;;;8.17;6.93;;;;;;;;;;5073533;28;20188;-56
2021/07/01 02:53:51;;;;;;;10.20;8.07;;;;;;;;;;5062120;28;20674;-57
2021/07/01 02:56:16;;;;;;;12.67;8.37;;;;;;;;;;5081573;28;20201;-57
2021/07/01 02:58:42;;;;;;;13.23;8.60;;;;;;;;;;5078431;28;20669;-56
2021/07/01 03:01:07;;;;;;;12.10;8.83;;;;;;;;;;5081141;28;20195;-57
2021/07/01 03:03:32;;;;;;;15.13;9.73;;;;;;;;;;5082001;28;20586;-57
2021/07/01 03:05:58;;;;;;;14.63;10.83;;;;;;;;;;5079081;28;20868;-57
2021/07/01 03:08:23;;;;;;;15.27;10.53;;;;;;;;;;5083559;28;20310;-57
2021/07/01 03:10:48;;;;;;;16.57;10.60;;;;;;;;;;5080547;28;20277;-57
2021/07/01 03:13:14;;;;;;;13.60;9.30;;;;;;;;;;5083635;28;20184;-57
2021/07/01 03:15:41;;;;;;;11.33;8.70;;;;;;;;;;5079146;28;20212;-56
2021/07/01 03:18:06;;;;;;;14.27;9.40;;;;;;;;;;5065399;28;20204;-57
2021/07/01 03:20:31;;;;;;;11.80;8.70;;;;;;;;;;5063249;28;20256;-56
2021/07/01 03:22:57;;;;;;;13.17;8.80;;;;;;;;;;5081202;28;20264;-56
2021/07/01 03:25:22;;;;;;;14.03;9.07;;;;;;;;;;5081672;28;20659;-57
2021/07/01 03:27:47;;;;;;;9.47;8.13;;;;;;;;;;5078587;28;20199;-57
2021/07/01 03:30:13;;;;;;;10.60;7.93;;;;;;;;;;5078233;28;20230;-57
2021/07/01 03:32:38;;;;;;;13.83;8.57;;;;;;;;;;5083053;28;20199;-57
2021/07/01 03:35:04;;;;;;;11.13;7.80;;;;;;;;;;5080293;28;20627;-57
2021/07/01 03:37:29;;;;;;;10.87;7.73;;;;;;;;;;5064007;28;20208;-56
2021/07/01 03:39:55;;;;;;;8.30;7.47;;;;;;;;;;5076595;28;20719;-57
2021/07/01 03:42:21;;;;;;;7.43;6.00;;;;;;;;;;5077205;28;20201;-57
2021/07/01 03:44:47;;;;;;;22.07;7.07;;;;;;;;;;5078170;28;20188;-57
2021/07/01 03:47:12;;;;;;;8.10;5.73;;;;;;;;;;5084253;28;20269;-57
2021/07/01 03:49:37;;;;;;;8.90;6.20;;;;;;;;;;5081012;28;20197;-57
2021/07/01 03:52:03;;;;;;;6.23;5.23;;;;;;;;;;5080805;28;20194;-57
2021/07/01 03:54:28;;;;;;;8.27;6.27;;;;;;;;;;5063736;28;20280;-56
2021/07/01 03:56:54;;;;;;;6.87;6.10;;;;;;;;;;5084977;28;20217;-57
2021/07/01 03:59:19;;;;;;;7.97;6.10;;;;;;;;;;5060898;28;20606;-57
2021/07/01 04:01:44;;;;;;;8.60;6.40;;;;;;;;;;5084021;28;20276;-57
2021/07/01 04:04:10;;;;;;;7.57;5.77;;;;;;;;;;5065483;28;20272;-57
2021/07/01 04:06:35;;;;;;;7.30;5.27;;;;;;;;;;5078456;28;20247;-57
2021/07/01 04:09:02;;;;;;;8.97;6.60;;;;;;;;;;5064291;28;20196;-55
2021/07/01 04:11:27;;;;;;;8.73;6.93;;;;;;;;;;5081573;28;20196;-58
2021/07/01 04:13:53;;;;;;;8.80;6.53;;;;;;;;;;5061178;28;20291;-57
2021/07/01 04:16:19;;;;;;;12.13;6.93;;;;;;;;;;5062680;28;20220;-57
2021/07/01 04:18:44;;;;;;;11.23;7.17;;;;;;;;;;5081086;28;20697;-57
2021/07/01 04:21:09;;;;;;;8.17;6.37;;;;;;;;;;5078768;28;20258;-57
2021/07/01 04:23:35;;;;;;;8.40;6.83;;;;;;;;;;5083197;28;20217;-57
2021/07/01 04:26:00;;;;;;;9.83;7.13;;;;;;;;;;5086251;28;20205;-57
2021/07/01 04:28:25;;;;;;;10.67;7.07;;;;;;;;;;5064696;28;20315;-57
2021/07/01 04:30:51;;;;;;;10.00;7.13;;;;;;;;;;5083405;28;20204;-57
2021/07/01 04:33:16;;;;;;;9.30;7.00;;;;;;;;;;5082830;28;20255;-57
2021/07/01 04:35:48;;;;;;;10.13;6.90;;;;;;;;;;5084784;28;20215;-58
2021/07/01 04:38:14;;;;;;;8.67;6.30;;;;;;;;;;5085413;28;20176;-56
2021/07/01 04:40:39;;;;;;;8.63;6.47;;;;;;;;;;5087528;28;20188;-57
2021/07/01 04:43:04;;;;;;;7.50;6.50;;;;;;;;;;5066053;28;20208;-58
2021/07/01 04:45:30;;;;;;;9.03;6.70;;;;;;;;;;5066849;28;20273;-56
2021/07/01 04:47:56;;;;;;;7.80;6.60;;;;;;;;;;5089402;28;20559;-55
2021/07/01 04:50:21;;;;;;;10.73;7.23;;;;;;;;;;5084325;28;20184;-56
2021/07/01 04:52:46;;;;;;;7.70;6.40;;;;;;;;;;5083960;28;20189;-57
2021/07/01 04:55:11;;;;;;;11.97;6.77;;;;;;;;;;5063184;28;20189;-56
2021/07/01 04:57:37;;;;;;;8.50;7.00;;;;;;;;;;5078372;28;20213;-56
2021/07/01 05:00:04;;;;;;;9.67;7.27;;;;;;;;;;5086195;28;20576;-57
2021/07/01 05:02:29;;;;;;;7.97;6.47;;;;;;;;;;5080138;28;20213;-56
2021/07/01 05:04:54;;;;;;;9.37;7.00;;;;;;;;;;5084694;28;20559;-56
2021/07/01 05:07:19;;;;;;;7.33;5.93;;;;;;;;;;5080827;28;20223;-56
2021/07/01 05:09:45;;;;;;;7.37;6.60;;;;;;;;;;5065870;28;20246;-56
2021/07/01 05:12:10;;;;;;;8.17;6.93;;;;;;;;;;5065739;28;20166;-56
2021/07/01 05:14:35;;;;;;;9.63;7.00;;;;;;;;;;5086993;28;20193;-57
2021/07/01 05:17:01;;;;;;;9.23;7.07;;;;;;;;;;5078713;28;20889;-57
2021/07/01 05:19:26;;;;;;;7.33;6.60;;;;;;;;;;5082632;28;20197;-56
2021/07/01 05:21:51;;;;;;;9.23;6.77;;;;;;;;;;5083750;28;20224;-55
2021/07/01 05:24:16;;;;;;;8.50;6.80;;;;;;;;;;5064929;28;20206;-57
2021/07/01 05:26:42;;;;;;;10.13;7.70;;;;;;;;;;5083183;28;20216;-56
2021/07/01 05:29:07;;;;;;;8.50;7.23;;;;;;;;;;5084034;28;20297;-54
2021/07/01 05:31:32;;;;;;;8.83;7.50;;;;;;;;;;5067271;28;20193;-54
2021/07/01 05:33:59;;;;;;;10.20;7.80;;;;;;;;;;5085237;28;20220;-56
2021/07/01 05:36:25;;;;;;;12.50;8.17;;;;;;;;;;5082473;28;20254;-56
2021/07/01 05:38:50;;;;;;;8.77;7.37;;;;;;;;;;5078845;28;20597;-57
2021/07/01 05:41:15;;;;;;;9.20;7.00;;;;;;;;;;5081565;28;20915;-56
2021/07/01 05:43:40;;;;;;;10.43;7.53;;;;;;;;;;5087681;28;20204;-57
2021/07/01 05:46:06;;;;;;;8.57;6.73;;;;;;;;;;5082093;28;20845;-56
2021/07/01 05:48:32;;;;;;;10.93;7.13;;;;;;;;;;5085710;28;20181;-56
2021/07/01 05:51:02;;;;;;;8.60;6.80;;;;;;;;;;5082593;28;20785;-57
2021/07/01 05:53:32;;;;;;;8.77;6.57;;;;;;;;;;5084131;28;20243;-57
2021/07/01 05:55:58;;;;;;;8.30;6.57;;;;;;;;;;5082308;28;20292;-57
2021/07/01 05:58:24;;;;;;;9.00;6.30;;;;;;;;;;5082965;28;20192;-56
2021/07/01 06:00:49;;;;;;;6.77;5.50;;;;;;;;;;5083770;28;20203;-57
2021/07/01 06:03:15;;;;;;;7.80;5.33;;;;;;;;;;5082371;28;20840;-57
2021/07/01 06:05:44;;;;;;;6.67;5.60;;;;;;;;;;5079357;28;20203;-56
2021/07/01 06:08:11;;;;;;;7.70;5.73;;;;;;;;;;5083115;28;20209;-56
2021/07/01 06:10:39;;;;;;;6.07;5.47;;;;;;;;;;5052252;28;20201;-56
2021/07/01 06:13:06;;;;;;;6.17;4.73;;;;;;;;;;5083822;28;20181;-56
2021/07/01 06:15:35;;;;;;;6.57;4.80;;;;;;;;;;5083216;28;20838;-55
2021/07/01 06:18:03;;;;;;;5.00;4.50;;;;;;;;;;5083665;28;20188;-57
2021/07/01 06:20:29;;;;;;;6.53;4.03;;;;;;;;;;5079744;28;20285;-56
2021/07/01 06:22:54;;;;;;;4.50;4.10;;;;;;;;;;5082553;28;20720;-57
2021/07/01 06:25:21;;;;;;;6.23;4.70;;;;;;;;;;5083096;28;20192;-54
2021/07/01 06:27:48;;;;;;;4.97;4.47;;;;;;;;;;5084301;28;20639;-56
2021/07/01 06:30:19;;;;;;;4.13;3.50;;;;;;;;;;5066508;28;20203;-57
2021/07/01 06:32:45;;;;;;;4.87;4.00;;;;;;;;;;5076644;28;20188;-57
2021/07/01 06:35:12;;;;;;;4.97;3.80;;;;;;;;;;5084557;28;20196;-56
2021/07/01 06:37:39;;;;;;;5.03;3.87;;;;;;;;;;5077546;28;20208;-56
2021/07/01 06:40:06;;;;;;;5.60;3.90;;;;;;;;;;5082750;28;20200;-56
2021/07/01 06:42:33;;;;;;;4.70;4.30;;;;;;;;;;5082174;28;20236;-56
2021/07/01 06:45:02;;;;;;;6.77;3.87;;;;;;;;;;5082537;28;20622;-56
2021/07/01 06:47:29;;;;;;;3.90;3.50;;;;;;;;;;5080972;28;20213;-56
2021/07/01 06:49:54;;;;;;;4.10;3.67;;;;;;;;;;5081439;28;20185;-57
2021/07/01 06:52:20;;;;;;;4.50;3.33;;;;;;;;;;5085042;28;20207;-55
2021/07/01 06:54:46;;;;;;;5.13;3.60;;;;;;;;;;5080023;28;20212;-56
2021/07/01 06:57:12;;;;;;;3.97;3.60;;;;;;;;;;5062511;28;20261;-57
2021/07/01 06:59:39;;;;;;;4.20;3.80;;;;;;;;;;5080720;28;20196;-54
2021/07/01 07:02:04;;;;;;;3.77;3.37;;;;;;;;;;5058841;28;20205;-56
2021/07/01 07:04:31;;;;;;;5.43;3.60;;;;;;;;;;5064854;28;20628;-56
2021/07/01 07:06:57;;;;;;;5.27;3.30;;;;;;;;;;5077352;28;20253;-54
2021/07/01 07:09:24;;;;;;;4.77;3.83;;;;;;;;;;5077407;28;20205;-57
2021/07/01 07:11:50;;;;;;;4.93;3.20;;;;;;;;;;5077100;28;20191;-54
2021/07/01 07:14:16;;;;;;;3.17;2.87;;;;;;;;;;5066071;28;20182;-56
2021/07/01 07:16:42;;;;;;;3.40;2.90;;;;;;;;;;5080411;28;20231;-57
2021/07/01 07:19:09;;;;;;;3.13;2.63;;;;;;;;;;5082920;28;20260;-56
2021/07/01 07:21:38;;;;;;;3.97;3.20;;;;;;;;;;5078159;28;20179;-56
2021/07/01 07:24:04;;;;;;;3.87;3.00;;;;;;;;;;5078804;28;20235;-56
2021/07/01 07:26:30;;;;;;;3.07;2.77;;;;;;;;;;5080952;28;20236;-56
2021/07/01 07:28:56;;;;;;;2.50;2.30;;;;;;;;;;5078187;28;20187;-56
2021/07/01 07:31:31;;;;;;;6.47;2.57;;;;;;;;;;5064864;28;20176;-55
2021/07/01 07:34:00;;;;;;;2.43;2.23;;;;;;;;;;5077920;28;20184;-56
2021/07/01 07:36:27;;;;;;;2.10;1.90;;;;;;;;;;5082637;28;20791;-55
2021/07/01 07:38:54;;;;;;;2.60;2.40;;;;;;;;;;5082590;28;20612;-56
2021/07/01 07:41:21;;;;;;;2.50;2.30;;;;;;;;;;5079921;28;20184;-54
2021/07/01 07:43:48;;;;;;;2.60;2.00;;;;;;;;;;5085303;28;20292;-55
2021/07/01 07:46:14;;;;;;;2.30;2.10;;;;;;;;;;5062667;28;20204;-57
2021/07/01 07:48:40;;;;;;;2.97;2.30;;;;;;;;;;5084505;28;20501;-56
2021/07/01 07:51:06;;;;;;;2.47;2.00;;;;;;;;;;5081581;28;20710;-56
2021/07/01 07:53:33;;;;;;;3.50;1.90;;;;;;;;;;5078758;28;20185;-57
2021/07/01 07:56:09;;;;;;;4.10;1.90;;;;;;;;;;5078532;28;20216;-55
2021/07/01 07:58:48;;;;;;;1.63;1.53;;;;;;;;;;5086981;28;20360;-56
2021/07/01 08:01:13;;;;;;;1.73;1.63;;;;;;;;;;5080286;28;20185;-56
2021/07/01 08:03:41;;;;;;;1.73;1.63;;;;;;;;;;5083563;28;20211;-56
2021/07/01 08:06:07;;;;;;;4.20;1.80;;;;;;;;;;5082249;28;20200;-56
2021/07/01 08:08:36;;;;;;;2.53;1.70;;;;;;;;;;5084386;28;20188;-54
2021/07/01 08:11:05;;;;;;;1.70;1.60;;;;;;;;;;5082723;28;20193;-56
2021/07/01 08:13:31;;;;;;;1.93;1.70;;;;;;;;;;5084231;28;20189;-56
2021/07/01 08:15:57;;;;;;;1.67;1.57;;;;;;;;;;5082646;28;20307;-56
2021/07/01 08:18:31;;;;;;;2.20;1.50;;;;;;;;;;5083141;28;20268;-56
2021/07/01 08:20:58;;;;;;;1.40;1.30;;;;;;;;;;5081339;28;20824;-56
2021/07/01 08:23:23;;;;;;;1.40;1.30;;;;;;;;;;5086436;28;20193;-56
2021/07/01 08:25:51;;;;;;;1.40;1.30;;;;;;;;;;5066270;28;20222;-54
2021/07/01 08:28:21;;;;;;;2.57;1.43;;;;;;;;;;5063333;28;20192;-56
2021/07/01 08:30:48;;;;;;;1.73;1.60;;;;;;;;;;5090356;22;20237;-56
2021/07/01 08:33:18;;;;;;;2.03;1.43;;;;;;;;;;5066232;28;20182;-58
2021/07/01 08:35:48;;;;;;;1.20;1.10;;;;;;;;;;5060188;28;20189;-56
2021/07/01 08:38:14;;;;;;;1.40;1.30;;;;;;;;;;5064110;28;20661;-55
2021/07/01 08:40:44;;;;;;;1.70;1.13;;;;;;;;;;5066966;28;20201;-57
2021/07/01 08:43:10;;;;;;;1.67;1.20;;;;;;;;;;5053178;28;20209;-57
2021/07/01 08:45:49;;;;;;;1.20;1.10;;;;;;;;;;5066185;28;20185;-56
2021/07/01 08:48:22;;;;;;;7.27;1.70;;;;;;;;;;5065693;28;20744;-55
2021/07/01 08:50:53;;;;;;;9.80;1.50;;;;;;;;;;5061281;28;20209;-54
2021/07/01 08:53:46;;;;;;;17.60;2.23;;;;;;;;;;5064786;28;20189;-54
2021/07/01 08:56:16;;;;;;;1.03;0.80;;;;;;;;;;5061572;28;20238;-57
2021/07/01 08:58:47;;;;;;;1.63;0.90;;;;;;;;;;5062284;28;20320;-57
2021/07/01 09:01:16;;;;;;;0.90;0.90;;;;;;;;;;5064560;28;20293;-56
2021/07/01 09:03:43;;;;;;;1.80;1.10;;;;;;;;;;5045655;28;20612;-56
2021/07/01 09:06:17;;;;;;;6.70;1.80;;;;;;;;;;5059835;28;20194;-55
2021/07/01 09:08:46;;;;;;;1.57;1.00;;;;;;;;;;5058599;28;20181;-54
2021/07/01 09:11:16;;;;;;;1.27;1.10;;;;;;;;;;5026576;28;20280;-56
2021/07/01 09:13:46;;;;;;;1.20;0.97;;;;;;;;;;5061169;28;20178;-55
2021/07/01 09:16:14;;;;;;;1.40;1.10;;;;;;;;;;5063717;28;20264;-57
2021/07/01 09:18:40;;;;;;;1.30;1.10;;;;;;;;;;5062322;28;20187;-56
2021/07/01 09:21:06;;;;;;;3.80;1.10;;;;;;;;;;5058009;28;20209;-56
2021/07/01 09:23:31;;;;;;;1.33;1.10;;;;;;;;;;5059584;28;20197;-56
2021/07/01 09:26:00;;;;;;;0.90;0.90;;;;;;;;;;5062432;28;20194;-54
2021/07/01 09:28:26;;;;;;;1.20;1.10;;;;;;;;;;5055607;28;20189;-56
2021/07/01 09:30:54;;;;;;;1.30;1.20;;;;;;;;;;5059615;28;20216;-56
2021/07/01 09:33:19;;;;;;;2.33;1.20;;;;;;;;;;5066490;28;20565;-56
2021/07/01 09:35:45;;;;;;;1.10;1.00;;;;;;;;;;5058501;28;20182;-56
2021/07/01 09:38:11;;;;;;;1.47;1.30;;;;;;;;;;5065699;28;20566;-56
2021/07/01 09:40:37;;;;;;;1.40;1.30;;;;;;;;;;5063518;28;20197;-56
2021/07/01 09:43:06;;;;;;;1.30;1.20;;;;;;;;;;5065431;28;20231;-55
2021/07/01 09:45:33;;;;;;;1.30;1.20;;;;;;;;;;5046509;28;20189;-59
2021/07/01 09:48:08;;;;;;;1.73;1.20;;;;;;;;;;5062025;28;20181;-58
2021/07/01 09:50:37;;;;;;;1.50;1.40;;;;;;;;;;5061178;28;20619;-55
2021/07/01 09:53:04;;;;;;;1.20;1.10;;;;;;;;;;5060052;28;20247;-56
2021/07/01 09:55:31;;;;;;;1.40;1.30;;;;;;;;;;5068648;28;20696;-56
2021/07/01 09:58:10;;;;;;;3.83;1.30;;;;;;;;;;5061059;28;20265;-58
2021/07/01 10:00:36;;;;;;;1.40;1.30;;;;;;;;;;5062087;28;20209;-57
2021/07/01 10:03:09;;;;;;;2.17;1.50;;;;;;;;;;5061795;28;20220;-55
2021/07/01 10:05:36;;;;;;;1.30;1.20;;;;;;;;;;5061136;28;20304;-56
2021/07/01 10:08:02;;;;;;;1.30;1.20;;;;;;;;;;5066024;28;20188;-55
2021/07/01 10:10:27;;;;;;;1.50;1.30;;;;;;;;;;5046570;28;20202;-55
2021/07/01 10:12:54;;;;;;;1.73;1.40;;;;;;;;;;5056994;28;20207;-56
2021/07/01 10:15:28;;;;;;;1.00;1.00;;;;;;;;;;5055393;28;20758;-56
2021/07/01 10:18:11;;;;;;;1.57;1.40;;;;;;;;;;5062556;28;20235;-56
2021/07/01 10:20:42;;;;;;;2.07;1.43;;;;;;;;;;5047052;28;20243;-57
2021/07/01 10:23:30;;;;;;;2.53;1.50;;;;;;;;;;5056887;28;20822;-56
2021/07/01 10:26:09;;;;;;;2.47;1.20;;;;;;;;;;5050347;28;20194;-57
2021/07/01 10:28:35;;;;;;;2.07;1.33;;;;;;;;;;5048332;28;20174;-59
2021/07/01 10:31:04;;;;;;;1.10;1.00;;;;;;;;;;5057896;28;20266;-58
2021/07/01 10:33:35;;;;;;;1.70;1.43;;;;;;;;;;5066243;28;20276;-58
2021/07/01 10:36:03;;;;;;;1.53;1.10;;;;;;;;;;5058691;28;20192;-57
2021/07/01 10:38:47;;;;;;;1.63;1.13;;;;;;;;;;5043907;28;20181;-57
2021/07/01 10:41:34;;;;;;;2.00;1.13;;;;;;;;;;5048235;28;20201;-57
2021/07/01 10:44:01;;;;;;;1.93;1.00;;;;;;;;;;5060372;28;20219;-57
2021/07/01 10:46:56;;;;;;;0.90;0.90;;;;;;;;;;5061829;28;20814;-55
2021/07/01 10:49:32;;;;;;;1.10;1.00;;;;;;;;;;5024542;28;20216;-55
2021/07/01 10:52:01;;;;;;;2.10;1.10;;;;;;;;;;5056407;28;20185;-56
2021/07/01 10:54:27;;;;;;;1.93;1.27;;;;;;;;;;5047191;28;20177;-56
2021/07/01 10:56:54;;;;;;;1.10;1.00;;;;;;;;;;5059451;28;20765;-55
2021/07/01 10:59:20;;;;;;;1.03;0.90;;;;;;;;;;5060362;28;20197;-56
2021/07/01 11:01:48;;;;;;;1.20;1.00;;;;;;;;;;5061214;28;20239;-55
2021/07/01 11:04:18;;;;;;;1.20;1.10;;;;;;;;;;5061271;28;20210;-56
2021/07/01 11:06:55;;;;;;;1.10;1.00;;;;;;;;;;5061580;28;20189;-55
2021/07/01 11:09:21;;;;;;;1.30;1.20;;;;;;;;;;5058534;28;20181;-57
2021/07/01 11:11:46;;;;;;;4.40;1.13;;;;;;;;;;5060952;28;20184;-55
2021/07/01 11:14:14;;;;;;;1.93;1.20;;;;;;;;;;5039442;28;20177;-55
2021/07/01 11:16:42;;;;;;;1.20;1.10;;;;;;;;;;5057856;28;20212;-57
2021/07/01 11:19:12;;;;;;;1.30;1.20;;;;;;;;;;5037226;28;20686;-56
2021/07/01 11:21:46;;;;;;;1.90;1.23;;;;;;;;;;5055344;28;20597;-55
2021/07/01 11:24:17;;;;;;;2.90;1.27;;;;;;;;;;5061766;28;20177;-57
2021/07/01 11:26:47;;;;;;;1.53;1.10;;;;;;;;;;5050707;28;21763;-56
2021/07/01 11:29:13;;;;;;;1.00;1.00;;;;;;;;;;5053453;28;20189;-55
2021/07/01 11:31:49;;;;;;;1.27;1.17;;;;;;;;;;5054986;28;20196;-57
2021/07/01 11:34:17;;;;;;;1.70;1.17;;;;;;;;;;5060038;28;20268;-55
2021/07/01 11:36:51;;;;;;;18.85;2.17;;;;;;;;;;5063248;28;20178;-57
2021/07/01 11:39:28;;;;;;;1.30;1.20;;;;;;;;;;5058168;28;20196;-56
2021/07/01 11:41:54;;;;;;;1.20;1.10;;;;;;;;;;5061309;28;20212;-57
2021/07/01 11:44:22;;;;;;;1.52;1.30;;;;;;;;;;5062689;28;20196;-57
2021/07/01 11:46:48;;;;;;;1.35;0.82;;;;;;;;;;5057509;28;20682;-56
2021/07/01 11:49:14;;;;;;;1.27;1.17;;;;;;;;;;5055615;28;20282;-58
2021/07/01 11:51:40;;;;;;;1.27;1.10;;;;;;;;;;5058706;28;20222;-56
2021/07/01 11:54:06;;;;;;;1.30;1.05;;;;;;;;;;5061588;28;20177;-55
2021/07/01 11:56:53;;;;;;;1.10;0.90;;;;;;;;;;5059096;28;20692;-56
2021/07/01 11:59:20;;;;;;;1.60;1.00;;;;;;;;;;5061158;28;20197;-57
2021/07/01 12:01:45;;;;;;;1.10;1.00;;;;;;;;;;5041423;28;21694;-57
2021/07/01 12:04:13;;;;;;;1.00;0.90;;;;;;;;;;5060327;28;20205;-56
2021/07/01 12:06:51;;;;;;;1.87;1.00;;;;;;;;;;5060907;28;20196;-56
2021/07/01 12:09:18;;;;;;;0.97;0.87;;;;;;;;;;5059783;28;20695;-58
2021/07/01 12:12:01;;;;;;;1.20;1.10;;;;;;;;;;5061301;28;20182;-55
2021/07/01 12:14:34;;;;;;;1.10;1.00;;;;;;;;;;5059058;28;20213;-56
2021/07/01 12:16:59;;;;;;;1.00;1.00;;;;;;;;;;5061614;28;20620;-58
2021/07/01 12:19:46;;;;;;;1.67;1.00;;;;;;;;;;5044179;28;20181;-56
2021/07/01 12:22:46;;;;;;;0.68;0.68;;;;;;;;;;5054670;28;20206;-55
2021/07/01 12:25:12;;;;;;;0.80;0.80;;;;;;;;;;5056646;28;20786;-56
2021/07/01 12:27:37;;;;;;;0.90;0.90;;;;;;;;;;5063070;28;20177;-56
2021/07/01 12:30:03;;;;;;;1.10;1.00;;;;;;;;;;5045428;28;20224;-56
2021/07/01 12:32:28;;;;;;;1.55;0.90;;;;;;;;;;5060879;28;20174;-55
2021/07/01 12:34:54;;;;;;;0.90;0.90;;;;;;;;;;5055930;28;20221;-56
2021/07/01 12:37:22;;;;;;;1.33;0.93;;;;;;;;;;5047145;28;20184;-55
2021/07/01 12:39:48;;;;;;;1.63;0.90;;;;;;;;;;5059294;28;20206;-56
2021/07/01 12:42:16;;;;;;;1.33;0.87;;;;;;;;;;5056078;28;20198;-55
2021/07/01 12:44:44;;;;;;;0.90;0.90;;;;;;;;;;5058015;28;20243;-55
2021/07/01 12:47:26;;;;;;;1.30;1.17;;;;;;;;;;5057477;28;20653;-56
2021/07/01 12:49:53;;;;;;;0.90;0.90;;;;;;;;;;5061213;28;20288;-55
2021/07/01 12:52:20;;;;;;;1.20;1.10;;;;;;;;;;5058374;28;20631;-57
2021/07/01 12:54:45;;;;;;;0.90;0.80;;;;;;;;;;5060157;28;20176;-56
2021/07/01 12:57:12;;;;;;;0.93;0.87;;;;;;;;;;5061745;28;20182;-56
2021/07/01 12:59:46;;;;;;;1.80;1.10;;;;;;;;;;5057156;28;20214;-55
2021/07/01 13:02:15;;;;;;;0.90;0.90;;;;;;;;;;5063644;28;20212;-56
2021/07/01 13:04:48;;;;;;;1.67;1.00;;;;;;;;;;5061250;28;20629;-56
2021/07/01 13:07:17;;;;;;;2.03;0.90;;;;;;;;;;5061123;28;20707;-55
2021/07/01 13:09:45;;;;;;;1.00;0.90;;;;;;;;;;5044999;28;20209;-54
2021/07/01 13:12:20;;;;;;;1.07;1.00;;;;;;;;;;5063907;28;20178;-55
2021/07/01 13:14:46;;;;;;;1.20;1.10;;;;;;;;;;5059887;28;20194;-54
2021/07/01 13:17:13;;;;;;;0.80;0.80;;;;;;;;;;5064810;28;20196;-54
2021/07/01 13:19:40;;;;;;;2.50;1.07;;;;;;;;;;5034788;28;20262;-56
2021/07/01 13:22:18;;;;;;;1.37;1.00;;;;;;;;;;5065979;28;20766;-55
2021/07/01 13:25:02;;;;;;;2.70;1.00;;;;;;;;;;5064823;28;20181;-55
2021/07/01 13:27:34;;;;;;;2.20;1.10;;;;;;;;;;5062145;28;20223;-55
2021/07/01 13:30:02;;;;;;;1.43;1.10;;;;;;;;;;5060392;28;20616;-57
2021/07/01 13:32:28;;;;;;;1.33;1.00;;;;;;;;;;5063639;28;20211;-55
2021/07/01 13:34:54;;;;;;;1.00;1.00;;;;;;;;;;5047528;28;20898;-56
2021/07/01 13:37:25;;;;;;;0.87;0.87;;;;;;;;;;5049214;28;20280;-56
2021/07/01 13:39:52;;;;;;;1.10;1.00;;;;;;;;;;5057048;28;20212;-56
2021/07/01 13:42:26;;;;;;;1.50;1.20;;;;;;;;;;5064340;28;20190;-56
2021/07/01 13:44:57;;;;;;;1.40;1.00;;;;;;;;;;5061916;28;20211;-56
2021/07/01 13:47:23;;;;;;;2.60;1.20;;;;;;;;;;5068122;28;20833;-55
2021/07/01 13:49:48;;;;;;;1.47;1.00;;;;;;;;;;5061732;28;20291;-54
2021/07/01 13:52:15;;;;;;;1.20;1.10;;;;;;;;;;5063827;28;20734;-55
2021/07/01 13:54:41;;;;;;;1.83;1.33;;;;;;;;;;5063431;28;20545;-55
2021/07/01 13:57:06;;;;;;;1.40;1.30;;;;;;;;;;5064380;28;20183;-56
2021/07/01 13:59:32;;;;;;;1.30;1.20;;;;;;;;;;5061313;28;20267;-55
2021/07/01 14:01:57;;;;;;;1.10;0.87;;;;;;;;;;5060731;28;20237;-55
2021/07/01 14:04:22;;;;;;;1.23;1.10;;;;;;;;;;5063866;28;20192;-56
2021/07/01 14:06:48;;;;;;;1.10;1.00;;;;;;;;;;5062496;28;20196;-55
2021/07/01 14:09:19;;;;;;;1.77;1.67;;;;;;;;;;5062513;28;20255;-55
2021/07/01 14:11:46;;;;;;;1.35;1.20;;;;;;;;;;5062835;28;20571;-56
2021/07/01 14:14:13;;;;;;;1.17;1.00;;;;;;;;;;5059534;28;20178;-55
2021/07/01 14:16:40;;;;;;;2.63;1.10;;;;;;;;;;5064688;28;20192;-56
2021/07/01 14:19:15;;;;;;;1.37;1.00;;;;;;;;;;5067856;28;20691;-55
2021/07/01 14:21:45;;;;;;;1.23;1.13;;;;;;;;;;5057738;28;20185;-56
2021/07/01 14:24:20;;;;;;;1.00;0.80;;;;;;;;;;5059029;28;20193;-55
2021/07/01 14:26:54;;;;;;;2.37;1.03;;;;;;;;;;5062361;28;20196;-56
2021/07/01 14:29:23;;;;;;;2.60;1.03;;;;;;;;;;5060983;28;20583;-55
2021/07/01 14:31:50;;;;;;;1.07;0.87;;;;;;;;;;5063490;28;20197;-55
2021/07/01 14:34:16;;;;;;;2.60;1.00;;;;;;;;;;5070414;22;20220;-75
2021/07/01 14:36:49;;;;;;;1.53;1.10;;;;;;;;;;5062706;28;20273;-75
2021/07/01 14:39:21;;;;;;;2.00;1.20;;;;;;;;;;5064471;28;20186;-75
2021/07/01 14:41:46;;;;;;;1.20;1.10;;;;;;;;;;5044456;28;20201;-75